Search METAR Data

METAR Data for ENFL:

ENFL 241420Z 31009KT 9999 VCSH FEW012 SCT024 BKN045 04/M01 Q1009